createdAt,value
2023-02-02T00:01:51.579Z,13.05
2023-02-02T00:04:24.461Z,14.13
2023-02-02T00:06:51.462Z,21.25
2023-02-02T00:09:20.130Z,13.90
2023-02-02T00:11:48.631Z,16.65
2023-02-02T00:14:15.828Z,15.63
2023-02-02T00:16:49.345Z,18.83
2023-02-02T00:19:18.970Z,19.25
2023-02-02T00:21:45.938Z,18.85
2023-02-02T00:24:14.582Z,15.82
2023-02-02T00:26:42.598Z,11.02
2023-02-02T00:29:17.769Z,17.60
2023-02-02T00:31:44.834Z,19.92
2023-02-02T00:34:13.650Z,13.75
2023-02-02T00:36:41.044Z,21.75
2023-02-02T00:39:09.347Z,15.27
2023-02-02T00:41:36.018Z,16.45
2023-02-02T00:44:39.242Z,10.13
2023-02-02T00:47:05.920Z,14.23
2023-02-02T00:49:32.497Z,14.23
2023-02-02T00:52:00.408Z,16.90
2023-02-02T00:54:27.569Z,15.27
2023-02-02T00:56:57.368Z,17.63
2023-02-02T00:59:29.252Z,15.98
2023-02-02T01:01:56.584Z,16.52
2023-02-02T01:04:23.614Z,12.93
2023-02-02T01:06:50.336Z,6.15
2023-02-02T01:09:17.059Z,20.63
2023-02-02T01:12:01.570Z,10.18
2023-02-02T01:14:31.548Z,19.17
2023-02-02T01:17:01.428Z,11.25
2023-02-02T01:19:38.594Z,15.63
2023-02-02T01:22:05.328Z,11.98
2023-02-02T01:24:32.436Z,12.63
2023-02-02T01:26:59.167Z,15.43
2023-02-02T01:29:26.000Z,13.82
2023-02-02T01:31:52.806Z,15.73
2023-02-02T01:34:19.547Z,14.40
2023-02-02T01:36:48.966Z,15.73
2023-02-02T01:39:15.569Z,13.55
2023-02-02T01:41:42.349Z,16.70
2023-02-02T01:44:46.683Z,15.93
2023-02-02T01:47:14.338Z,17.73
2023-02-02T01:49:44.320Z,16.70
2023-02-02T01:52:13.184Z,15.48
2023-02-02T01:54:46.662Z,16.77
2023-02-02T01:57:20.877Z,17.98
2023-02-02T01:59:51.542Z,11.80
2023-02-02T02:02:18.441Z,14.65
2023-02-02T02:04:45.243Z,18.87
2023-02-02T02:07:12.215Z,17.52
2023-02-02T02:09:38.920Z,14.43
2023-02-02T02:12:15.455Z,17.20
2023-02-02T02:15:05.301Z,11.60
2023-02-02T02:18:17.554Z,17.90
2023-02-02T02:21:40.322Z,15.88
2023-02-02T02:25:27.854Z,19.45
2023-02-02T02:28:34.464Z,19.92
2023-02-02T02:31:31.083Z,15.93
2023-02-02T02:34:09.373Z,19.17
2023-02-02T02:36:49.858Z,15.85
2023-02-02T02:39:30.437Z,10.25
2023-02-02T02:42:10.957Z,20.40
2023-02-02T02:44:42.342Z,9.93
2023-02-02T02:47:12.775Z,12.95
2023-02-02T02:50:00.266Z,12.20
2023-02-02T02:52:27.026Z,15.73
2023-02-02T02:54:55.784Z,15.23
2023-02-02T02:57:22.379Z,13.75
2023-02-02T02:59:55.664Z,11.90
2023-02-02T03:02:29.187Z,13.82
2023-02-02T03:05:21.453Z,11.48
2023-02-02T03:07:55.694Z,10.88
2023-02-02T03:10:30.396Z,16.75
2023-02-02T03:13:03.769Z,15.50
2023-02-02T03:15:37.759Z,16.08
2023-02-02T03:18:07.319Z,11.40
2023-02-02T03:20:44.270Z,8.48
2023-02-02T03:23:21.753Z,12.82
2023-02-02T03:25:49.069Z,18.55
2023-02-02T03:28:22.545Z,11.87
2023-02-02T03:30:53.272Z,12.32
2023-02-02T03:33:20.221Z,14.07
2023-02-02T03:35:51.607Z,16.70
2023-02-02T03:38:18.699Z,16.77
2023-02-02T03:40:45.504Z,16.30
2023-02-02T03:43:47.132Z,11.05
2023-02-02T03:46:13.994Z,11.68
2023-02-02T03:48:45.333Z,17.48
2023-02-02T03:51:16.713Z,19.40
2023-02-02T03:53:47.840Z,20.23
2023-02-02T03:56:16.050Z,11.47
2023-02-02T03:58:42.834Z,13.95
2023-02-02T04:01:12.450Z,15.10
2023-02-02T04:03:39.068Z,18.23
2023-02-02T04:06:05.968Z,17.95
2023-02-02T04:08:34.163Z,17.95
2023-02-02T04:11:03.629Z,14.73
2023-02-02T04:13:51.600Z,15.83
2023-02-02T04:16:18.231Z,13.55
2023-02-02T04:18:44.965Z,20.83
2023-02-02T04:21:11.730Z,18.80
2023-02-02T04:23:38.709Z,18.05
2023-02-02T04:26:05.601Z,18.38
2023-02-02T04:28:33.886Z,8.27
2023-02-02T04:31:00.645Z,12.53
2023-02-02T04:33:36.817Z,18.63
2023-02-02T04:36:10.189Z,19.52
2023-02-02T04:38:46.503Z,20.00
2023-02-02T04:41:14.786Z,17.35
2023-02-02T04:43:41.680Z,16.33
2023-02-02T04:46:08.347Z,21.80
2023-02-02T04:48:35.178Z,18.50
2023-02-02T04:51:03.318Z,17.80
2023-02-02T04:53:30.360Z,17.45
2023-02-02T04:55:58.872Z,19.40
2023-02-02T04:58:26.016Z,20.17
2023-02-02T05:00:57.674Z,15.77
2023-02-02T05:03:29.275Z,15.93
2023-02-02T05:06:05.012Z,14.25
2023-02-02T05:08:32.130Z,22.08
2023-02-02T05:10:58.924Z,14.07
2023-02-02T05:13:25.563Z,18.17
2023-02-02T05:15:53.864Z,15.38
2023-02-02T05:18:30.823Z,17.15
2023-02-02T05:21:01.692Z,23.65
2023-02-02T05:23:40.067Z,19.80
2023-02-02T05:26:19.692Z,18.00
2023-02-02T05:28:46.752Z,21.23
2023-02-02T05:31:13.479Z,14.65
2023-02-02T05:33:40.169Z,14.70
2023-02-02T05:36:07.484Z,13.32
2023-02-02T05:38:34.783Z,14.65
2023-02-02T05:41:01.745Z,16.20
2023-02-02T05:43:29.944Z,18.00
2023-02-02T05:45:56.765Z,17.08
2023-02-02T05:48:23.482Z,23.83
2023-02-02T05:51:05.125Z,16.02
2023-02-02T05:53:32.674Z,20.80
2023-02-02T05:55:59.634Z,19.92
2023-02-02T05:58:26.640Z,19.87
2023-02-02T06:00:55.578Z,19.63
2023-02-02T06:03:23.585Z,14.20
2023-02-02T06:05:50.327Z,18.05
2023-02-02T06:08:16.976Z,15.65
2023-02-02T06:10:43.863Z,17.45
2023-02-02T06:13:10.611Z,17.23
2023-02-02T06:15:37.718Z,21.60
2023-02-02T06:18:06.601Z,10.67
2023-02-02T06:20:33.519Z,20.17
2023-02-02T06:23:00.397Z,17.50
2023-02-02T06:25:27.338Z,14.70
2023-02-02T06:28:01.293Z,13.95
2023-02-02T06:30:28.408Z,19.55
2023-02-02T06:33:10.607Z,17.55
2023-02-02T06:35:37.209Z,17.67
2023-02-02T06:38:04.049Z,18.40
2023-02-02T06:40:30.616Z,12.55
2023-02-02T06:42:58.546Z,15.47
2023-02-02T06:45:26.236Z,19.10
2023-02-02T06:47:53.784Z,21.80
2023-02-02T06:50:20.602Z,27.70
2023-02-02T06:52:49.314Z,18.80
2023-02-02T06:55:16.122Z,19.20
2023-02-02T06:57:42.971Z,25.40
2023-02-02T07:00:10.480Z,17.97
2023-02-02T07:02:37.236Z,21.97
2023-02-02T07:05:04.406Z,19.33
2023-02-02T07:07:34.766Z,15.33
2023-02-02T07:10:01.368Z,17.93
2023-02-02T07:12:27.951Z,16.40
2023-02-02T07:14:54.543Z,21.10
2023-02-02T07:17:21.133Z,23.50
2023-02-02T07:19:47.708Z,28.23
2023-02-02T07:22:15.982Z,21.70
2023-02-02T07:24:42.626Z,16.00
2023-02-02T07:27:09.242Z,16.00
2023-02-02T07:29:36.420Z,16.63
2023-02-02T07:32:03.093Z,19.27
2023-02-02T07:34:29.665Z,19.35
2023-02-02T07:36:57.152Z,15.23
2023-02-02T07:39:23.824Z,19.63
2023-02-02T07:41:50.410Z,23.03
2023-02-02T07:44:16.994Z,21.30
2023-02-02T07:46:45.196Z,15.15
2023-02-02T07:49:17.149Z,13.53
2023-02-02T07:51:47.665Z,14.27
2023-02-02T07:54:14.948Z,23.33
2023-02-02T07:56:41.633Z,20.60
2023-02-02T07:59:11.227Z,23.45
2023-02-02T08:01:38.059Z,18.60
2023-02-02T08:04:04.857Z,24.85
2023-02-02T08:06:37.415Z,15.70
2023-02-02T08:09:08.131Z,15.43
2023-02-02T08:11:36.462Z,23.03
2023-02-02T08:14:04.204Z,18.48
2023-02-02T08:16:32.862Z,20.17
2023-02-02T08:18:59.643Z,19.60
2023-02-02T08:21:26.267Z,26.00
2023-02-02T08:23:53.537Z,14.88
2023-02-02T08:26:28.197Z,16.53
2023-02-02T08:29:00.848Z,15.88
2023-02-02T08:31:36.317Z,16.25
2023-02-02T08:34:03.713Z,15.85
2023-02-02T08:36:31.081Z,21.85
2023-02-02T08:39:03.879Z,12.30
2023-02-02T08:41:30.888Z,11.57
2023-02-02T08:43:57.517Z,18.08
2023-02-02T08:46:24.925Z,21.85
2023-02-02T08:48:51.750Z,14.05
2023-02-02T08:51:19.854Z,12.95
2023-02-02T08:53:47.158Z,9.85
2023-02-02T08:56:16.319Z,13.90
2023-02-02T08:58:48.436Z,18.50
2023-02-02T09:01:17.673Z,14.85
2023-02-02T09:03:45.205Z,16.25
2023-02-02T09:06:17.059Z,14.57
2023-02-02T09:08:44.202Z,11.35
2023-02-02T09:11:13.579Z,13.98
2023-02-02T09:13:41.732Z,13.23
2023-02-02T09:16:10.592Z,24.30
2023-02-02T09:18:37.999Z,16.08
2023-02-02T09:21:08.200Z,15.63
2023-02-02T09:23:38.141Z,15.90
2023-02-02T09:26:22.737Z,16.13
2023-02-02T09:29:02.461Z,8.57
2023-02-02T09:31:32.467Z,15.20
2023-02-02T09:34:04.697Z,18.42
2023-02-02T09:36:31.935Z,11.15
2023-02-02T09:38:58.912Z,15.90
2023-02-02T09:41:37.672Z,10.32
2023-02-02T09:44:37.506Z,11.98
2023-02-02T09:47:42.200Z,12.60
2023-02-02T09:50:34.891Z,11.73
2023-02-02T09:53:05.943Z,12.43
2023-02-02T09:55:39.919Z,8.65
2023-02-02T09:58:22.703Z,12.25
2023-02-02T10:01:07.525Z,13.15
2023-02-02T10:03:46.117Z,13.43
2023-02-02T10:06:21.455Z,11.00
2023-02-02T10:08:54.002Z,12.43
2023-02-02T10:11:38.596Z,11.23
2023-02-02T10:14:20.877Z,9.85
2023-02-02T10:16:51.582Z,10.23
2023-02-02T10:19:18.176Z,13.40
2023-02-02T10:22:05.129Z,21.83
2023-02-02T10:24:32.685Z,15.07
2023-02-02T10:27:04.512Z,11.23
2023-02-02T10:29:53.211Z,9.32
2023-02-02T10:32:25.947Z,11.10
2023-02-02T10:35:13.115Z,12.80
2023-02-02T10:38:02.997Z,14.65
2023-02-02T10:40:38.734Z,12.60
2023-02-02T10:43:46.012Z,11.18
2023-02-02T10:46:38.912Z,12.23
2023-02-02T10:49:31.056Z,12.75
2023-02-02T10:52:06.492Z,13.95
2023-02-02T10:55:00.960Z,13.95
2023-02-02T10:58:22.993Z,14.23
2023-02-02T11:00:55.416Z,9.68
2023-02-02T11:03:42.349Z,11.05
2023-02-02T11:06:29.914Z,11.65
2023-02-02T11:08:56.975Z,11.20
2023-02-02T11:11:32.871Z,9.10
2023-02-02T11:14:07.722Z,10.60
2023-02-02T11:16:43.264Z,13.43
2023-02-02T11:19:22.410Z,11.30
2023-02-02T11:21:53.471Z,14.15
2023-02-02T11:24:30.140Z,10.85
2023-02-02T11:27:02.642Z,14.02
2023-02-02T11:29:42.047Z,13.20
2023-02-02T11:32:30.065Z,13.05
2023-02-02T11:35:02.601Z,12.57
2023-02-02T11:37:30.563Z,9.88
2023-02-02T11:40:24.296Z,11.77
2023-02-02T11:42:51.912Z,12.55
2023-02-02T11:45:29.023Z,7.63
2023-02-02T11:48:02.103Z,13.18
2023-02-02T11:50:29.527Z,9.80
2023-02-02T11:52:56.409Z,13.15
2023-02-02T11:55:29.098Z,10.45
2023-02-02T11:58:18.271Z,13.38
2023-02-02T12:00:49.982Z,11.80
2023-02-02T12:03:30.598Z,9.70
2023-02-02T12:05:57.545Z,10.02
2023-02-02T12:08:24.789Z,8.27
2023-02-02T12:11:02.996Z,14.77
2023-02-02T12:14:02.167Z,10.88
2023-02-02T12:16:53.478Z,10.38
2023-02-02T12:19:45.418Z,12.50
2023-02-02T12:22:32.689Z,10.52
2023-02-02T12:25:02.305Z,13.15
2023-02-02T12:27:48.577Z,14.05
2023-02-02T12:30:35.960Z,11.10
2023-02-02T12:33:23.415Z,8.95
2023-02-02T12:36:21.707Z,12.90
2023-02-02T12:39:06.865Z,10.77
2023-02-02T12:41:55.345Z,14.18
2023-02-02T12:44:37.277Z,11.98
2023-02-02T12:47:14.577Z,15.07
2023-02-02T12:50:05.181Z,17.02
2023-02-02T12:53:07.018Z,13.60
2023-02-02T12:55:47.945Z,13.35
2023-02-02T12:58:37.424Z,15.02
2023-02-02T13:01:47.670Z,12.20
2023-02-02T13:04:39.179Z,11.57
2023-02-02T13:07:28.524Z,17.02
2023-02-02T13:10:20.517Z,12.32
2023-02-02T13:13:09.424Z,15.25
2023-02-02T13:15:41.378Z,14.00
2023-02-02T13:18:17.072Z,11.45
2023-02-02T13:20:45.435Z,12.90
2023-02-02T13:23:28.243Z,11.10
2023-02-02T13:26:15.753Z,11.18
2023-02-02T13:28:58.089Z,9.73
2023-02-02T13:31:35.784Z,7.65
2023-02-02T13:34:25.866Z,10.55
2023-02-02T13:37:29.507Z,12.30
2023-02-02T13:40:15.543Z,14.90
2023-02-02T13:42:48.106Z,13.85
2023-02-02T13:45:24.284Z,8.70
2023-02-02T13:48:04.367Z,13.65
2023-02-02T13:50:37.160Z,15.50
2023-02-02T13:53:36.007Z,17.80
2023-02-02T13:56:30.613Z,13.55
2023-02-02T13:59:23.620Z,16.88
2023-02-02T14:01:52.418Z,13.10
2023-02-02T14:04:29.992Z,14.57
2023-02-02T14:07:07.015Z,11.88
2023-02-02T14:09:37.082Z,9.55
2023-02-02T14:12:08.117Z,15.07
2023-02-02T14:14:38.126Z,10.80
2023-02-02T14:17:14.237Z,8.85
2023-02-02T14:19:43.853Z,14.73
2023-02-02T14:22:10.435Z,13.73
2023-02-02T14:24:37.107Z,12.93
2023-02-02T14:27:30.100Z,14.23
2023-02-02T14:29:56.695Z,15.98
2023-02-02T14:32:29.305Z,18.35
2023-02-02T14:35:20.687Z,11.18
2023-02-02T14:38:05.982Z,14.77
2023-02-02T14:40:48.542Z,14.90
2023-02-02T14:43:45.757Z,18.02
2023-02-02T14:46:15.777Z,11.07
2023-02-02T14:48:48.762Z,14.40
2023-02-02T14:51:25.179Z,11.45
2023-02-02T14:54:01.146Z,10.00
2023-02-02T14:56:51.057Z,12.32
2023-02-02T14:59:32.820Z,11.90
2023-02-02T15:02:20.418Z,14.45
2023-02-02T15:04:48.272Z,17.98
2023-02-02T15:07:24.115Z,12.10
2023-02-02T15:09:52.341Z,13.55
2023-02-02T15:12:46.761Z,14.30
2023-02-02T15:15:25.437Z,12.95
2023-02-02T15:18:18.872Z,17.83
2023-02-02T15:20:56.219Z,15.68
2023-02-02T15:23:34.343Z,12.43
2023-02-02T15:26:04.150Z,14.27
2023-02-02T15:28:33.840Z,11.00
2023-02-02T15:31:34.961Z,12.25
2023-02-02T15:34:09.563Z,15.57
2023-02-02T15:36:41.413Z,15.90
2023-02-02T15:39:27.808Z,14.68
2023-02-02T15:42:16.069Z,12.88
2023-02-02T15:44:43.878Z,15.05
2023-02-02T15:47:18.227Z,15.65
2023-02-02T15:49:46.136Z,12.45
2023-02-02T15:52:17.632Z,12.45
2023-02-02T15:54:59.535Z,12.15
2023-02-02T15:57:36.250Z,11.10
2023-02-02T16:00:33.651Z,13.40
2023-02-02T16:03:14.708Z,21.98
2023-02-02T16:05:48.575Z,16.50
2023-02-02T16:11:22.764Z,11.85
2023-02-02T16:14:07.057Z,17.02
2023-02-02T16:16:39.684Z,26.05
2023-02-02T16:19:14.310Z,16.33
2023-02-02T16:21:49.010Z,14.98
2023-02-02T16:24:25.804Z,12.93
2023-02-02T16:27:20.427Z,13.07
2023-02-02T16:29:48.102Z,20.05
2023-02-02T16:32:42.324Z,9.75
2023-02-02T16:35:39.940Z,7.90
2023-02-02T16:39:06.455Z,12.23
2023-02-02T16:42:00.937Z,16.73
2023-02-02T16:44:49.165Z,11.52
2023-02-02T16:47:34.127Z,13.27
2023-02-02T16:50:27.995Z,11.85
2023-02-02T16:53:10.685Z,8.95
2023-02-02T16:55:50.946Z,8.70
2023-02-02T16:58:22.176Z,11.10
2023-02-02T17:01:13.917Z,8.85
2023-02-02T17:03:56.351Z,8.93
2023-02-02T17:06:50.157Z,9.27
2023-02-02T17:09:37.650Z,10.75
2023-02-02T17:12:34.525Z,10.45
2023-02-02T17:15:20.905Z,7.45
2023-02-02T17:17:49.408Z,7.47
2023-02-02T17:20:20.357Z,9.00
2023-02-02T17:22:59.923Z,6.93
2023-02-02T17:25:28.976Z,7.78
2023-02-02T17:28:01.137Z,8.88
2023-02-02T17:30:30.171Z,9.93
2023-02-02T17:32:57.257Z,9.75
2023-02-02T17:35:26.551Z,7.28
2023-02-02T17:37:56.179Z,8.70
2023-02-02T17:40:24.361Z,8.43
2023-02-02T17:42:53.616Z,11.13
2023-02-02T17:45:29.224Z,9.88
2023-02-02T17:47:57.313Z,10.00
2023-02-02T17:50:27.912Z,13.73
2023-02-02T17:53:15.532Z,8.60
2023-02-02T17:55:47.091Z,7.85
2023-02-02T17:58:17.130Z,10.00
2023-02-02T18:00:54.055Z,14.43
2023-02-02T18:03:27.977Z,8.38
2023-02-02T18:05:56.281Z,9.65
2023-02-02T18:08:23.323Z,7.88
2023-02-02T18:10:50.058Z,10.70
2023-02-02T18:13:22.271Z,6.72
2023-02-02T18:15:50.185Z,9.80
2023-02-02T18:18:17.027Z,9.02
2023-02-02T18:20:45.223Z,10.20
2023-02-02T18:23:13.028Z,11.30
2023-02-02T18:25:40.448Z,7.90
2023-02-02T18:28:08.160Z,11.25
2023-02-02T18:30:37.366Z,9.25
2023-02-02T18:33:04.090Z,13.80
2023-02-02T18:35:30.872Z,12.45
2023-02-02T18:37:57.973Z,7.95
2023-02-02T18:40:24.874Z,9.07
2023-02-02T18:42:52.370Z,13.45
2023-02-02T18:45:22.702Z,13.60
2023-02-02T18:47:50.085Z,12.93
2023-02-02T18:50:17.789Z,15.77
2023-02-02T18:53:06.219Z,8.98
2023-02-02T18:56:00.177Z,14.55
2023-02-02T18:58:27.644Z,12.20
2023-02-02T19:00:54.351Z,11.35
2023-02-02T19:03:41.202Z,8.90
2023-02-02T19:06:28.211Z,10.32
2023-02-02T19:08:58.428Z,10.48
2023-02-02T19:11:29.321Z,12.48
2023-02-02T19:13:56.530Z,16.50
2023-02-02T19:16:28.439Z,14.40
2023-02-02T19:18:58.005Z,11.90
2023-02-02T19:21:30.744Z,11.70
2023-02-02T19:23:59.401Z,12.60
2023-02-02T19:26:30.381Z,19.13
2023-02-02T19:29:05.722Z,13.00
2023-02-02T19:31:32.974Z,11.93
2023-02-02T19:34:01.461Z,12.82
2023-02-02T19:36:31.527Z,12.77
2023-02-02T19:39:04.953Z,11.65
2023-02-02T19:41:32.489Z,10.45
2023-02-02T19:44:06.534Z,11.60
2023-02-02T19:46:44.268Z,9.27
2023-02-02T19:49:28.776Z,15.80
2023-02-02T19:51:57.341Z,13.15
2023-02-02T19:54:37.959Z,11.73
2023-02-02T19:57:15.375Z,14.85
2023-02-02T19:59:45.825Z,13.60
2023-02-02T20:02:58.953Z,12.75
2023-02-02T20:05:44.831Z,19.65
2023-02-02T20:08:26.965Z,25.30
2023-02-02T20:11:32.474Z,16.75
2023-02-02T20:14:02.517Z,19.50
2023-02-02T20:16:41.928Z,16.90
2023-02-02T20:19:24.434Z,15.13
2023-02-02T20:21:53.237Z,17.70
2023-02-02T20:24:36.836Z,16.80
2023-02-02T20:27:25.007Z,15.73
2023-02-02T20:29:54.763Z,21.48
2023-02-02T20:32:30.201Z,21.48
2023-02-02T21:42:48.461Z,20.33
2023-02-02T21:45:32.471Z,21.65
2023-02-02T21:48:01.629Z,23.02
2023-02-02T21:50:37.960Z,23.40
2023-02-02T21:53:16.867Z,23.00
2023-02-02T21:55:53.130Z,22.85
2023-02-02T21:58:26.717Z,21.73
2023-02-02T22:00:57.455Z,22.98
2023-02-02T22:03:35.011Z,22.27
2023-02-02T22:06:26.131Z,22.10
2023-02-02T22:09:13.860Z,21.70
2023-02-02T22:11:59.141Z,20.95
2023-02-02T22:14:37.803Z,19.08
2023-02-02T22:17:34.357Z,24.40
2023-02-02T22:20:14.526Z,21.80
2023-02-02T22:22:45.601Z,21.27
2023-02-02T22:25:26.417Z,22.40
2023-02-02T22:27:55.340Z,21.60
2023-02-02T22:30:38.073Z,21.60
2023-02-02T22:33:06.883Z,21.95
2023-02-02T22:35:34.451Z,21.02
2023-02-02T22:38:02.393Z,19.33
2023-02-02T22:40:30.525Z,20.13
2023-02-02T22:43:07.739Z,22.13
2023-02-02T22:45:35.562Z,22.67
2023-02-02T22:48:02.177Z,19.33
2023-02-02T22:50:30.756Z,17.15
2023-02-02T22:52:57.765Z,21.30
2023-02-02T22:55:24.662Z,24.33
2023-02-02T22:57:53.559Z,20.98
2023-02-02T23:00:23.435Z,22.52
2023-02-02T23:02:51.823Z,24.63
2023-02-02T23:07:47.272Z,20.23
2023-02-02T23:10:16.975Z,19.42
2023-02-02T23:12:44.714Z,19.67
2023-02-02T23:15:12.190Z,18.63
2023-02-02T23:17:38.904Z,20.58
2023-02-02T23:20:09.739Z,22.83
2023-02-02T23:22:36.883Z,18.20
2023-02-02T23:25:04.701Z,23.10
2023-02-02T23:27:32.040Z,18.40
2023-02-02T23:29:58.788Z,17.27
2023-02-02T23:32:25.873Z,21.67
2023-02-02T23:34:52.700Z,17.85
2023-02-02T23:37:19.356Z,18.35
2023-02-02T23:39:46.109Z,15.80
2023-02-02T23:42:13.295Z,16.63
2023-02-02T23:44:40.296Z,17.98
2023-02-02T23:47:07.233Z,19.95
2023-02-02T23:49:34.863Z,19.88
2023-02-02T23:52:02.974Z,14.02
2023-02-02T23:54:31.192Z,18.42
2023-02-02T23:56:59.210Z,17.67
2023-02-02T23:59:26.048Z,17.13
